sensor_id;sensor_type;location;lat;lon;timestamp;P1;durP1;ratioP1;P2;durP2;ratioP2
22983;SDS011;11658;48.908;9.140;2022-07-24T05:03:38;11.33;;;10.33;;
22983;SDS011;11658;48.908;9.140;2022-07-24T05:06:04;11.03;;;10.03;;
22983;SDS011;11658;48.908;9.140;2022-07-24T05:08:30;11.30;;;10.30;;
22983;SDS011;11658;48.908;9.140;2022-07-24T05:10:56;10.95;;;9.73;;
22983;SDS011;11658;48.908;9.140;2022-07-24T05:13:22;11.95;;;10.75;;
22983;SDS011;11658;48.908;9.140;2022-07-24T05:15:48;11.25;;;10.23;;
22983;SDS011;11658;48.908;9.140;2022-07-24T05:18:14;11.50;;;10.40;;
22983;SDS011;11658;48.908;9.140;2022-07-24T05:20:39;10.95;;;9.95;;
22983;SDS011;11658;48.908;9.140;2022-07-24T05:23:05;11.85;;;9.82;;
22983;SDS011;11658;48.908;9.140;2022-07-24T05:25:31;12.85;;;9.60;;
22983;SDS011;11658;48.908;9.140;2022-07-24T05:27:56;10.20;;;9.18;;
22983;SDS011;11658;48.908;9.140;2022-07-24T05:30:22;9.52;;;8.68;;
22983;SDS011;11658;48.908;9.140;2022-07-24T05:32:48;10.80;;;9.90;;
22983;SDS011;11658;48.908;9.140;2022-07-24T05:35:13;10.05;;;9.13;;
22983;SDS011;11658;48.908;9.140;2022-07-24T05:37:39;10.38;;;9.38;;
22983;SDS011;11658;48.908;9.140;2022-07-24T05:40:04;10.13;;;9.15;;
22983;SDS011;11658;48.908;9.140;2022-07-24T05:42:30;11.38;;;10.27;;
22983;SDS011;11658;48.908;9.140;2022-07-24T05:44:56;10.07;;;8.93;;
22983;SDS011;11658;48.908;9.140;2022-07-24T05:47:22;9.73;;;8.90;;
22983;SDS011;11658;48.908;9.140;2022-07-24T05:49:47;10.10;;;9.20;;
22983;SDS011;11658;48.908;9.140;2022-07-24T05:52:13;11.55;;;10.48;;
22983;SDS011;11658;48.908;9.140;2022-07-24T05:54:38;11.10;;;10.02;;
22983;SDS011;11658;48.908;9.140;2022-07-24T05:57:04;10.80;;;9.90;;
22983;SDS011;11658;48.908;9.140;2022-07-24T05:59:29;12.20;;;11.10;;
22983;SDS011;11658;48.908;9.140;2022-07-24T06:01:55;10.40;;;9.50;;
22983;SDS011;11658;48.908;9.140;2022-07-24T06:04:21;10.85;;;9.93;;
22983;SDS011;11658;48.908;9.140;2022-07-24T06:06:47;13.98;;;10.73;;
22983;SDS011;11658;48.908;9.140;2022-07-24T06:09:12;12.00;;;10.93;;
22983;SDS011;11658;48.908;9.140;2022-07-24T06:11:38;12.07;;;10.95;;
22983;SDS011;11658;48.908;9.140;2022-07-24T06:14:03;12.55;;;11.40;;
22983;SDS011;11658;48.908;9.140;2022-07-24T06:16:30;13.13;;;11.93;;
22983;SDS011;11658;48.908;9.140;2022-07-24T06:18:55;11.20;;;10.10;;
22983;SDS011;11658;48.908;9.140;2022-07-24T06:21:21;12.02;;;10.93;;
22983;SDS011;11658;48.908;9.140;2022-07-24T06:23:46;11.30;;;10.30;;
22983;SDS011;11658;48.908;9.140;2022-07-24T06:26:12;10.82;;;9.90;;
22983;SDS011;11658;48.908;9.140;2022-07-24T06:28:38;10.68;;;9.70;;
22983;SDS011;11658;48.908;9.140;2022-07-24T06:31:03;10.50;;;9.60;;
22983;SDS011;11658;48.908;9.140;2022-07-24T06:33:29;10.80;;;9.85;;
22983;SDS011;11658;48.908;9.140;2022-07-24T06:35:54;10.57;;;9.63;;
22983;SDS011;11658;48.908;9.140;2022-07-24T06:38:20;10.60;;;9.60;;
22983;SDS011;11658;48.908;9.140;2022-07-24T06:40:46;11.65;;;10.55;;
22983;SDS011;11658;48.908;9.140;2022-07-24T06:43:11;11.05;;;9.95;;
22983;SDS011;11658;48.908;9.140;2022-07-24T06:45:37;13.13;;;11.75;;
22983;SDS011;11658;48.908;9.140;2022-07-24T06:48:03;10.77;;;9.88;;
22983;SDS011;11658;48.908;9.140;2022-07-24T06:50:29;12.45;;;11.25;;
22983;SDS011;11658;48.908;9.140;2022-07-24T06:52:54;12.35;;;10.85;;
22983;SDS011;11658;48.908;9.140;2022-07-24T06:55:20;13.48;;;12.20;;
22983;SDS011;11658;48.908;9.140;2022-07-24T06:57:46;11.60;;;10.70;;
22983;SDS011;11658;48.908;9.140;2022-07-24T07:00:12;11.65;;;10.57;;
22983;SDS011;11658;48.908;9.140;2022-07-24T07:02:37;10.68;;;9.75;;
22983;SDS011;11658;48.908;9.140;2022-07-24T07:05:04;9.80;;;8.93;;
22983;SDS011;11658;48.908;9.140;2022-07-24T07:07:31;9.73;;;8.73;;
22983;SDS011;11658;48.908;9.140;2022-07-24T07:09:57;9.60;;;8.73;;
22983;SDS011;11658;48.908;9.140;2022-07-24T07:12:23;9.40;;;8.02;;
22983;SDS011;11658;48.908;9.140;2022-07-24T07:14:48;10.32;;;8.05;;
22983;SDS011;11658;48.908;9.140;2022-07-24T07:17:14;9.45;;;8.55;;
22983;SDS011;11658;48.908;9.140;2022-07-24T07:19:42;8.48;;;7.75;;
22983;SDS011;11658;48.908;9.140;2022-07-24T07:22:09;8.27;;;7.40;;
22983;SDS011;11658;48.908;9.140;2022-07-24T07:24:35;8.80;;;8.10;;
22983;SDS011;11658;48.908;9.140;2022-07-24T07:27:00;8.80;;;8.02;;
22983;SDS011;11658;48.908;9.140;2022-07-24T07:29:26;9.85;;;8.85;;
22983;SDS011;11658;48.908;9.140;2022-07-24T07:31:52;10.65;;;9.65;;
22983;SDS011;11658;48.908;9.140;2022-07-24T07:34:17;11.27;;;9.57;;
22983;SDS011;11658;48.908;9.140;2022-07-24T07:36:43;10.43;;;9.43;;
22983;SDS011;11658;48.908;9.140;2022-07-24T07:39:09;11.63;;;10.07;;
22983;SDS011;11658;48.908;9.140;2022-07-24T07:41:34;9.52;;;8.73;;
22983;SDS011;11658;48.908;9.140;2022-07-24T07:44:00;10.07;;;9.02;;
22983;SDS011;11658;48.908;9.140;2022-07-24T07:46:26;8.00;;;7.28;;
22983;SDS011;11658;48.908;9.140;2022-07-24T07:48:52;7.78;;;7.00;;
22983;SDS011;11658;48.908;9.140;2022-07-24T07:51:18;10.25;;;8.98;;
22983;SDS011;11658;48.908;9.140;2022-07-24T07:53:44;10.63;;;9.52;;
22983;SDS011;11658;48.908;9.140;2022-07-24T07:56:10;9.18;;;8.27;;
22983;SDS011;11658;48.908;9.140;2022-07-24T07:58:36;8.48;;;7.68;;
22983;SDS011;11658;48.908;9.140;2022-07-24T08:01:02;7.90;;;7.20;;
22983;SDS011;11658;48.908;9.140;2022-07-24T08:03:28;10.02;;;9.05;;
22983;SDS011;11658;48.908;9.140;2022-07-24T08:05:53;9.93;;;8.95;;
22983;SDS011;11658;48.908;9.140;2022-07-24T08:08:19;9.55;;;8.57;;
22983;SDS011;11658;48.908;9.140;2022-07-24T08:10:44;9.75;;;8.80;;
22983;SDS011;11658;48.908;9.140;2022-07-24T08:13:10;9.35;;;8.43;;
22983;SDS011;11658;48.908;9.140;2022-07-24T08:15:37;9.20;;;8.30;;
22983;SDS011;11658;48.908;9.140;2022-07-24T08:18:03;9.23;;;8.38;;
22983;SDS011;11658;48.908;9.140;2022-07-24T08:20:29;8.00;;;7.30;;
22983;SDS011;11658;48.908;9.140;2022-07-24T08:22:55;9.13;;;8.23;;
22983;SDS011;11658;48.908;9.140;2022-07-24T08:25:20;8.38;;;7.60;;
22983;SDS011;11658;48.908;9.140;2022-07-24T08:27:46;8.95;;;8.00;;
22983;SDS011;11658;48.908;9.140;2022-07-24T08:30:13;8.73;;;7.93;;
22983;SDS011;11658;48.908;9.140;2022-07-24T08:32:39;10.57;;;8.43;;
22983;SDS011;11658;48.908;9.140;2022-07-24T08:35:05;9.07;;;8.27;;
22983;SDS011;11658;48.908;9.140;2022-07-24T08:37:38;8.95;;;8.07;;
22983;SDS011;11658;48.908;9.140;2022-07-24T08:40:05;8.05;;;7.18;;
22983;SDS011;11658;48.908;9.140;2022-07-24T08:42:32;8.93;;;7.65;;
22983;SDS011;11658;48.908;9.140;2022-07-24T08:44:58;8.57;;;7.78;;
22983;SDS011;11658;48.908;9.140;2022-07-24T08:47:25;7.63;;;6.97;;
22983;SDS011;11658;48.908;9.140;2022-07-24T08:49:54;8.27;;;7.47;;
22983;SDS011;11658;48.908;9.140;2022-07-24T08:52:22;7.78;;;7.07;;
22983;SDS011;11658;48.908;9.140;2022-07-24T08:54:48;8.23;;;7.43;;
22983;SDS011;11658;48.908;9.140;2022-07-24T08:57:14;8.43;;;7.60;;
22983;SDS011;11658;48.908;9.140;2022-07-24T08:59:40;7.88;;;7.07;;
22983;SDS011;11658;48.908;9.140;2022-07-24T09:02:05;7.40;;;6.80;;
22983;SDS011;11658;48.908;9.140;2022-07-24T09:07:08;8.25;;;7.45;;
22983;SDS011;11658;48.908;9.140;2022-07-24T09:09:36;8.68;;;7.82;;
22983;SDS011;11658;48.908;9.140;2022-07-24T09:12:03;9.25;;;7.88;;
22983;SDS011;11658;48.908;9.140;2022-07-24T09:14:33;7.85;;;7.05;;
22983;SDS011;11658;48.908;9.140;2022-07-24T09:17:19;7.60;;;6.75;;
22983;SDS011;11658;48.908;9.140;2022-07-24T09:25:20;7.93;;;7.13;;
22983;SDS011;11658;48.908;9.140;2022-07-24T09:28:00;7.82;;;6.55;;
22983;SDS011;11658;48.908;9.140;2022-07-24T09:38:15;7.80;;;6.60;;
22983;SDS011;11658;48.908;9.140;2022-07-24T09:40:55;6.55;;;5.90;;
22983;SDS011;11658;48.908;9.140;2022-07-24T09:48:31;6.78;;;6.07;;
22983;SDS011;11658;48.908;9.140;2022-07-24T09:51:18;5.85;;;5.30;;
22983;SDS011;11658;48.908;9.140;2022-07-24T09:53:44;5.32;;;4.55;;
22983;SDS011;11658;48.908;9.140;2022-07-24T09:58:39;6.05;;;5.55;;
22983;SDS011;11658;48.908;9.140;2022-07-24T10:01:12;5.38;;;4.88;;
22983;SDS011;11658;48.908;9.140;2022-07-24T10:03:40;5.25;;;4.75;;
22983;SDS011;11658;48.908;9.140;2022-07-24T10:06:08;5.07;;;4.60;;
22983;SDS011;11658;48.908;9.140;2022-07-24T10:08:36;5.03;;;4.40;;
22983;SDS011;11658;48.908;9.140;2022-07-24T10:11:03;5.38;;;4.82;;
22983;SDS011;11658;48.908;9.140;2022-07-24T10:13:30;4.97;;;4.47;;
22983;SDS011;11658;48.908;9.140;2022-07-24T10:18:46;5.10;;;4.70;;
22983;SDS011;11658;48.908;9.140;2022-07-24T10:21:17;5.13;;;4.72;;
22983;SDS011;11658;48.908;9.140;2022-07-24T10:29:14;7.03;;;4.95;;
22983;SDS011;11658;48.908;9.140;2022-07-24T10:31:46;5.32;;;4.82;;
22983;SDS011;11658;48.908;9.140;2022-07-24T10:45:37;5.40;;;4.63;;
22983;SDS011;11658;48.908;9.140;2022-07-24T10:53:26;5.82;;;5.32;;
22983;SDS011;11658;48.908;9.140;2022-07-24T10:56:06;5.57;;;5.07;;
22983;SDS011;11658;48.908;9.140;2022-07-24T11:01:43;5.47;;;4.97;;
22983;SDS011;11658;48.908;9.140;2022-07-24T11:09:09;5.97;;;5.38;;
22983;SDS011;11658;48.908;9.140;2022-07-24T11:11:43;5.78;;;5.00;;
22983;SDS011;11658;48.908;9.140;2022-07-24T11:20:05;6.50;;;5.15;;
22983;SDS011;11658;48.908;9.140;2022-07-24T11:22:39;5.03;;;4.63;;
22983;SDS011;11658;48.908;9.140;2022-07-24T11:25:09;5.68;;;5.03;;
22983;SDS011;11658;48.908;9.140;2022-07-24T11:27:43;5.47;;;4.97;;
22983;SDS011;11658;48.908;9.140;2022-07-24T11:30:17;5.20;;;4.70;;
22983;SDS011;11658;48.908;9.140;2022-07-24T11:32:44;5.32;;;4.82;;
22983;SDS011;11658;48.908;9.140;2022-07-24T11:35:10;5.30;;;4.80;;
22983;SDS011;11658;48.908;9.140;2022-07-24T11:37:36;6.72;;;4.95;;
22983;SDS011;11658;48.908;9.140;2022-07-24T11:40:04;5.57;;;4.60;;
22983;SDS011;11658;48.908;9.140;2022-07-24T11:42:32;5.60;;;4.60;;
22983;SDS011;11658;48.908;9.140;2022-07-24T11:44:59;5.88;;;4.68;;
22983;SDS011;11658;48.908;9.140;2022-07-24T11:47:26;5.57;;;5.07;;
22983;SDS011;11658;48.908;9.140;2022-07-24T11:52:31;6.22;;;5.07;;
22983;SDS011;11658;48.908;9.140;2022-07-24T11:57:35;5.57;;;5.03;;
22983;SDS011;11658;48.908;9.140;2022-07-24T12:00:03;5.47;;;4.97;;
22983;SDS011;11658;48.908;9.140;2022-07-24T12:02:30;5.60;;;5.03;;
22983;SDS011;11658;48.908;9.140;2022-07-24T12:04:55;5.95;;;5.45;;
22983;SDS011;11658;48.908;9.140;2022-07-24T12:07:22;6.10;;;4.75;;
22983;SDS011;11658;48.908;9.140;2022-07-24T12:09:51;5.75;;;5.20;;
22983;SDS011;11658;48.908;9.140;2022-07-24T12:12:27;5.38;;;4.78;;
22983;SDS011;11658;48.908;9.140;2022-07-24T12:15:00;5.40;;;4.90;;
22983;SDS011;11658;48.908;9.140;2022-07-24T12:17:35;5.85;;;5.32;;
22983;SDS011;11658;48.908;9.140;2022-07-24T12:20:20;5.70;;;5.20;;
22983;SDS011;11658;48.908;9.140;2022-07-24T12:22:51;6.05;;;5.55;;
22983;SDS011;11658;48.908;9.140;2022-07-24T12:25:18;5.82;;;5.35;;
22983;SDS011;11658;48.908;9.140;2022-07-24T12:27:44;5.75;;;4.90;;
22983;SDS011;11658;48.908;9.140;2022-07-24T12:32:52;5.20;;;4.80;;
22983;SDS011;11658;48.908;9.140;2022-07-24T12:35:30;6.25;;;5.65;;
22983;SDS011;11658;48.908;9.140;2022-07-24T12:37:57;5.85;;;5.25;;
22983;SDS011;11658;48.908;9.140;2022-07-24T12:42:56;5.43;;;4.93;;
22983;SDS011;11658;48.908;9.140;2022-07-24T12:45:23;5.10;;;4.70;;
22983;SDS011;11658;48.908;9.140;2022-07-24T12:53:35;5.53;;;4.47;;
22983;SDS011;11658;48.908;9.140;2022-07-24T12:56:09;5.45;;;4.85;;
22983;SDS011;11658;48.908;9.140;2022-07-24T12:58:53;5.55;;;5.05;;
22983;SDS011;11658;48.908;9.140;2022-07-24T13:01:23;5.03;;;4.60;;
22983;SDS011;11658;48.908;9.140;2022-07-24T13:03:56;5.50;;;4.90;;
22983;SDS011;11658;48.908;9.140;2022-07-24T13:06:42;5.65;;;4.90;;
22983;SDS011;11658;48.908;9.140;2022-07-24T13:09:10;6.03;;;4.70;;
22983;SDS011;11658;48.908;9.140;2022-07-24T13:11:37;7.20;;;5.40;;
22983;SDS011;11658;48.908;9.140;2022-07-24T13:14:03;5.53;;;5.03;;
22983;SDS011;11658;48.908;9.140;2022-07-24T13:16:30;6.35;;;5.43;;
22983;SDS011;11658;48.908;9.140;2022-07-24T13:18:56;8.23;;;4.90;;
22983;SDS011;11658;48.908;9.140;2022-07-24T13:21:25;5.80;;;5.30;;
22983;SDS011;11658;48.908;9.140;2022-07-24T13:23:51;5.72;;;5.00;;
22983;SDS011;11658;48.908;9.140;2022-07-24T13:26:17;5.82;;;5.30;;
22983;SDS011;11658;48.908;9.140;2022-07-24T13:28:44;5.55;;;5.05;;
22983;SDS011;11658;48.908;9.140;2022-07-24T13:31:09;5.95;;;5.10;;
22983;SDS011;11658;48.908;9.140;2022-07-24T13:33:35;5.53;;;5.07;;
22983;SDS011;11658;48.908;9.140;2022-07-24T13:36:01;5.50;;;5.03;;
22983;SDS011;11658;48.908;9.140;2022-07-24T13:38:26;5.70;;;5.20;;
22983;SDS011;11658;48.908;9.140;2022-07-24T13:40:52;5.25;;;4.85;;
22983;SDS011;11658;48.908;9.140;2022-07-24T13:43:18;5.35;;;4.80;;
22983;SDS011;11658;48.908;9.140;2022-07-24T13:45:43;6.30;;;5.22;;
22983;SDS011;11658;48.908;9.140;2022-07-24T13:48:09;6.35;;;4.70;;
22983;SDS011;11658;48.908;9.140;2022-07-24T13:50:34;5.95;;;4.97;;
22983;SDS011;11658;48.908;9.140;2022-07-24T13:53:00;5.97;;;5.38;;
22983;SDS011;11658;48.908;9.140;2022-07-24T13:55:26;5.60;;;5.05;;
22983;SDS011;11658;48.908;9.140;2022-07-24T13:57:52;5.85;;;5.35;;
22983;SDS011;11658;48.908;9.140;2022-07-24T14:00:18;5.22;;;4.72;;
22983;SDS011;11658;48.908;9.140;2022-07-24T14:02:44;5.72;;;5.15;;
22983;SDS011;11658;48.908;9.140;2022-07-24T14:05:09;6.00;;;5.28;;
22983;SDS011;11658;48.908;9.140;2022-07-24T14:07:35;6.00;;;5.47;;
22983;SDS011;11658;48.908;9.140;2022-07-24T14:10:01;5.03;;;4.63;;
22983;SDS011;11658;48.908;9.140;2022-07-24T14:12:27;5.25;;;4.85;;
22983;SDS011;11658;48.908;9.140;2022-07-24T14:14:53;5.85;;;4.88;;
22983;SDS011;11658;48.908;9.140;2022-07-24T14:17:19;5.47;;;4.85;;
22983;SDS011;11658;48.908;9.140;2022-07-24T14:19:45;5.40;;;4.93;;
22983;SDS011;11658;48.908;9.140;2022-07-24T14:22:11;5.30;;;4.80;;
22983;SDS011;11658;48.908;9.140;2022-07-24T14:24:37;5.28;;;4.78;;
22983;SDS011;11658;48.908;9.140;2022-07-24T14:27:02;5.60;;;5.07;;
22983;SDS011;11658;48.908;9.140;2022-07-24T14:29:28;5.70;;;5.20;;
22983;SDS011;11658;48.908;9.140;2022-07-24T14:31:54;5.55;;;5.05;;
22983;SDS011;11658;48.908;9.140;2022-07-24T14:34:19;5.10;;;4.65;;
22983;SDS011;11658;48.908;9.140;2022-07-24T14:36:45;5.30;;;4.90;;
22983;SDS011;11658;48.908;9.140;2022-07-24T14:39:11;5.20;;;4.80;;
22983;SDS011;11658;48.908;9.140;2022-07-24T14:41:37;5.35;;;4.82;;
22983;SDS011;11658;48.908;9.140;2022-07-24T14:44:03;5.88;;;5.35;;
22983;SDS011;11658;48.908;9.140;2022-07-24T14:46:29;5.45;;;4.95;;
22983;SDS011;11658;48.908;9.140;2022-07-24T14:48:55;6.15;;;5.00;;
22983;SDS011;11658;48.908;9.140;2022-07-24T14:51:20;6.63;;;4.95;;
22983;SDS011;11658;48.908;9.140;2022-07-24T14:53:46;5.60;;;5.10;;
22983;SDS011;11658;48.908;9.140;2022-07-24T14:56:12;5.97;;;5.47;;
22983;SDS011;11658;48.908;9.140;2022-07-24T14:58:38;6.10;;;5.60;;
22983;SDS011;11658;48.908;9.140;2022-07-24T15:01:04;5.68;;;5.25;;
22983;SDS011;11658;48.908;9.140;2022-07-24T15:03:29;5.43;;;5.03;;
22983;SDS011;11658;48.908;9.140;2022-07-24T15:05:55;5.72;;;5.28;;
22983;SDS011;11658;48.908;9.140;2022-07-24T15:08:21;5.78;;;5.28;;
22983;SDS011;11658;48.908;9.140;2022-07-24T15:10:47;5.43;;;4.88;;
22983;SDS011;11658;48.908;9.140;2022-07-24T15:13:13;5.82;;;5.20;;
22983;SDS011;11658;48.908;9.140;2022-07-24T15:15:39;7.55;;;5.57;;
22983;SDS011;11658;48.908;9.140;2022-07-24T15:18:04;5.70;;;5.20;;
22983;SDS011;11658;48.908;9.140;2022-07-24T15:20:30;5.55;;;5.05;;
22983;SDS011;11658;48.908;9.140;2022-07-24T15:22:56;5.93;;;5.40;;
22983;SDS011;11658;48.908;9.140;2022-07-24T15:25:21;5.97;;;5.35;;
22983;SDS011;11658;48.908;9.140;2022-07-24T15:27:47;5.45;;;4.95;;
22983;SDS011;11658;48.908;9.140;2022-07-24T15:30:16;6.07;;;5.57;;
22983;SDS011;11658;48.908;9.140;2022-07-24T15:32:43;5.97;;;5.47;;
22983;SDS011;11658;48.908;9.140;2022-07-24T15:35:09;5.45;;;5.05;;
22983;SDS011;11658;48.908;9.140;2022-07-24T15:37:35;5.82;;;4.88;;
22983;SDS011;11658;48.908;9.140;2022-07-24T15:40:01;6.00;;;5.40;;
22983;SDS011;11658;48.908;9.140;2022-07-24T15:42:27;5.80;;;5.20;;
22983;SDS011;11658;48.908;9.140;2022-07-24T15:44:53;5.93;;;5.43;;
22983;SDS011;11658;48.908;9.140;2022-07-24T15:47:19;5.65;;;5.18;;
22983;SDS011;11658;48.908;9.140;2022-07-24T15:49:44;4.95;;;4.55;;
22983;SDS011;11658;48.908;9.140;2022-07-24T15:52:11;5.72;;;5.22;;
22983;SDS011;11658;48.908;9.140;2022-07-24T15:54:37;6.30;;;5.38;;
22983;SDS011;11658;48.908;9.140;2022-07-24T15:57:02;5.93;;;5.20;;
22983;SDS011;11658;48.908;9.140;2022-07-24T15:59:28;5.38;;;4.93;;
22983;SDS011;11658;48.908;9.140;2022-07-24T16:01:54;7.20;;;5.50;;
22983;SDS011;11658;48.908;9.140;2022-07-24T16:04:20;5.60;;;5.00;;
22983;SDS011;11658;48.908;9.140;2022-07-24T16:06:46;5.32;;;4.82;;
22983;SDS011;11658;48.908;9.140;2022-07-24T16:09:12;5.88;;;5.28;;
22983;SDS011;11658;48.908;9.140;2022-07-24T16:11:38;5.45;;;4.55;;
22983;SDS011;11658;48.908;9.140;2022-07-24T16:14:04;5.07;;;4.68;;
22983;SDS011;11658;48.908;9.140;2022-07-24T16:16:30;5.13;;;4.72;;
22983;SDS011;11658;48.908;9.140;2022-07-24T16:18:56;5.82;;;5.25;;
22983;SDS011;11658;48.908;9.140;2022-07-24T16:21:22;5.90;;;5.30;;
22983;SDS011;11658;48.908;9.140;2022-07-24T16:23:48;5.28;;;4.78;;
22983;SDS011;11658;48.908;9.140;2022-07-24T16:26:14;8.75;;;5.60;;
22983;SDS011;11658;48.908;9.140;2022-07-24T16:28:40;6.00;;;5.50;;
22983;SDS011;11658;48.908;9.140;2022-07-24T16:31:06;7.95;;;6.90;;
22983;SDS011;11658;48.908;9.140;2022-07-24T16:33:32;7.18;;;6.63;;
22983;SDS011;11658;48.908;9.140;2022-07-24T16:35:58;5.80;;;5.30;;
22983;SDS011;11658;48.908;9.140;2022-07-24T16:38:23;5.38;;;4.88;;
22983;SDS011;11658;48.908;9.140;2022-07-24T16:40:49;6.13;;;5.30;;
22983;SDS011;11658;48.908;9.140;2022-07-24T16:43:16;4.97;;;4.57;;
22983;SDS011;11658;48.908;9.140;2022-07-24T16:45:42;4.82;;;4.40;;
22983;SDS011;11658;48.908;9.140;2022-07-24T16:48:09;4.95;;;4.53;;
22983;SDS011;11658;48.908;9.140;2022-07-24T16:50:34;5.18;;;4.20;;
22983;SDS011;11658;48.908;9.140;2022-07-24T16:53:01;4.70;;;4.20;;
22983;SDS011;11658;48.908;9.140;2022-07-24T16:55:27;4.55;;;4.15;;
22983;SDS011;11658;48.908;9.140;2022-07-24T16:57:53;4.32;;;3.92;;
22983;SDS011;11658;48.908;9.140;2022-07-24T17:00:18;4.57;;;4.22;;
22983;SDS011;11658;48.908;9.140;2022-07-24T17:02:44;4.43;;;4.03;;
22983;SDS011;11658;48.908;9.140;2022-07-24T17:05:10;4.32;;;3.92;;
22983;SDS011;11658;48.908;9.140;2022-07-24T17:07:36;4.35;;;3.97;;
22983;SDS011;11658;48.908;9.140;2022-07-24T17:10:03;4.85;;;3.97;;
22983;SDS011;11658;48.908;9.140;2022-07-24T17:12:31;4.15;;;3.75;;
22983;SDS011;11658;48.908;9.140;2022-07-24T17:14:56;4.57;;;3.53;;
22983;SDS011;11658;48.908;9.140;2022-07-24T17:17:22;4.20;;;3.90;;
22983;SDS011;11658;48.908;9.140;2022-07-24T17:19:48;4.28;;;3.88;;
22983;SDS011;11658;48.908;9.140;2022-07-24T17:22:16;4.68;;;4.20;;
22983;SDS011;11658;48.908;9.140;2022-07-24T17:24:46;3.85;;;3.55;;
22983;SDS011;11658;48.908;9.140;2022-07-24T17:27:14;4.13;;;3.72;;
22983;SDS011;11658;48.908;9.140;2022-07-24T17:29:40;3.95;;;3.55;;
22983;SDS011;11658;48.908;9.140;2022-07-24T17:32:05;5.28;;;3.90;;
22983;SDS011;11658;48.908;9.140;2022-07-24T17:34:31;5.10;;;3.92;;
22983;SDS011;11658;48.908;9.140;2022-07-24T17:36:57;4.18;;;3.85;;
22983;SDS011;11658;48.908;9.140;2022-07-24T17:39:23;6.13;;;3.90;;
22983;SDS011;11658;48.908;9.140;2022-07-24T17:41:49;6.00;;;4.35;;
22983;SDS011;11658;48.908;9.140;2022-07-24T17:44:15;4.50;;;4.10;;
22983;SDS011;11658;48.908;9.140;2022-07-24T17:46:40;5.82;;;3.75;;
22983;SDS011;11658;48.908;9.140;2022-07-24T17:49:06;7.28;;;3.63;;
22983;SDS011;11658;48.908;9.140;2022-07-24T17:51:32;5.60;;;3.75;;
22983;SDS011;11658;48.908;9.140;2022-07-24T17:53:57;6.18;;;4.03;;
22983;SDS011;11658;48.908;9.140;2022-07-24T17:56:23;4.28;;;3.88;;
22983;SDS011;11658;48.908;9.140;2022-07-24T17:58:49;6.55;;;4.15;;
22983;SDS011;11658;48.908;9.140;2022-07-24T18:01:15;4.47;;;4.07;;
22983;SDS011;11658;48.908;9.140;2022-07-24T18:03:41;4.50;;;4.20;;
22983;SDS011;11658;48.908;9.140;2022-07-24T18:06:07;5.50;;;5.00;;
22983;SDS011;11658;48.908;9.140;2022-07-24T18:08:36;5.57;;;4.90;;
22983;SDS011;11658;48.908;9.140;2022-07-24T18:11:02;5.10;;;4.70;;
22983;SDS011;11658;48.908;9.140;2022-07-24T18:13:34;7.20;;;5.20;;
22983;SDS011;11658;48.908;9.140;2022-07-24T18:16:00;5.97;;;5.25;;
22983;SDS011;11658;48.908;9.140;2022-07-24T18:18:26;5.35;;;4.50;;
22983;SDS011;11658;48.908;9.140;2022-07-24T18:20:58;6.88;;;4.82;;
22983;SDS011;11658;48.908;9.140;2022-07-24T18:23:23;7.15;;;5.30;;
22983;SDS011;11658;48.908;9.140;2022-07-24T18:25:49;6.07;;;4.85;;
22983;SDS011;11658;48.908;9.140;2022-07-24T18:28:15;5.60;;;5.03;;
22983;SDS011;11658;48.908;9.140;2022-07-24T18:30:41;6.10;;;5.50;;
22983;SDS011;11658;48.908;9.140;2022-07-24T18:33:06;6.00;;;5.40;;
22983;SDS011;11658;48.908;9.140;2022-07-24T18:35:32;5.60;;;5.10;;
22983;SDS011;11658;48.908;9.140;2022-07-24T18:37:58;5.55;;;4.93;;
22983;SDS011;11658;48.908;9.140;2022-07-24T18:40:24;5.50;;;4.95;;
22983;SDS011;11658;48.908;9.140;2022-07-24T18:42:50;8.27;;;5.40;;
22983;SDS011;11658;48.908;9.140;2022-07-24T18:45:15;7.32;;;4.93;;
22983;SDS011;11658;48.908;9.140;2022-07-24T18:47:41;8.48;;;5.20;;
22983;SDS011;11658;48.908;9.140;2022-07-24T18:50:07;8.80;;;5.93;;
22983;SDS011;11658;48.908;9.140;2022-07-24T18:52:34;7.88;;;5.22;;
22983;SDS011;11658;48.908;9.140;2022-07-24T18:55:00;6.72;;;5.35;;
22983;SDS011;11658;48.908;9.140;2022-07-24T18:57:25;5.40;;;4.90;;
22983;SDS011;11658;48.908;9.140;2022-07-24T18:59:51;5.72;;;5.20;;
22983;SDS011;11658;48.908;9.140;2022-07-24T19:02:17;5.88;;;5.22;;
22983;SDS011;11658;48.908;9.140;2022-07-24T19:04:43;7.50;;;5.30;;
22983;SDS011;11658;48.908;9.140;2022-07-24T19:07:09;6.28;;;5.53;;
22983;SDS011;11658;48.908;9.140;2022-07-24T19:09:36;5.90;;;5.40;;
22983;SDS011;11658;48.908;9.140;2022-07-24T19:12:02;5.78;;;5.00;;
22983;SDS011;11658;48.908;9.140;2022-07-24T19:14:29;6.10;;;5.20;;
22983;SDS011;11658;48.908;9.140;2022-07-24T19:16:54;5.93;;;5.32;;
22983;SDS011;11658;48.908;9.140;2022-07-24T19:19:20;6.55;;;5.30;;
22983;SDS011;11658;48.908;9.140;2022-07-24T19:21:47;5.90;;;4.90;;
22983;SDS011;11658;48.908;9.140;2022-07-24T19:24:14;5.90;;;5.40;;
22983;SDS011;11658;48.908;9.140;2022-07-24T19:26:40;5.78;;;5.18;;
22983;SDS011;11658;48.908;9.140;2022-07-24T19:29:06;6.43;;;5.35;;
22983;SDS011;11658;48.908;9.140;2022-07-24T19:31:32;8.35;;;5.65;;
22983;SDS011;11658;48.908;9.140;2022-07-24T19:33:59;5.72;;;5.22;;
22983;SDS011;11658;48.908;9.140;2022-07-24T19:36:30;8.27;;;6.10;;
22983;SDS011;11658;48.908;9.140;2022-07-24T19:38:59;6.32;;;5.72;;
22983;SDS011;11658;48.908;9.140;2022-07-24T19:41:25;5.82;;;5.20;;
22983;SDS011;11658;48.908;9.140;2022-07-24T19:44:00;5.85;;;5.35;;
22983;SDS011;11658;48.908;9.140;2022-07-24T19:46:26;5.88;;;5.43;;
22983;SDS011;11658;48.908;9.140;2022-07-24T19:48:51;5.75;;;4.93;;
22983;SDS011;11658;48.908;9.140;2022-07-24T19:51:20;5.78;;;5.28;;
22983;SDS011;11658;48.908;9.140;2022-07-24T19:53:46;6.80;;;5.78;;
22983;SDS011;11658;48.908;9.140;2022-07-24T19:56:12;6.30;;;5.80;;
22983;SDS011;11658;48.908;9.140;2022-07-24T19:58:37;7.93;;;6.03;;
22983;SDS011;11658;48.908;9.140;2022-07-24T20:01:03;7.75;;;5.32;;
22983;SDS011;11658;48.908;9.140;2022-07-24T20:03:28;6.22;;;5.68;;
22983;SDS011;11658;48.908;9.140;2022-07-24T20:05:54;6.55;;;5.80;;
22983;SDS011;11658;48.908;9.140;2022-07-24T20:08:22;6.47;;;5.72;;
22983;SDS011;11658;48.908;9.140;2022-07-24T20:10:48;7.10;;;5.40;;
22983;SDS011;11658;48.908;9.140;2022-07-24T20:13:13;6.78;;;6.13;;
22983;SDS011;11658;48.908;9.140;2022-07-24T20:15:39;7.53;;;6.07;;
22983;SDS011;11658;48.908;9.140;2022-07-24T20:18:05;6.22;;;5.63;;
22983;SDS011;11658;48.908;9.140;2022-07-24T20:20:31;6.68;;;5.93;;
22983;SDS011;11658;48.908;9.140;2022-07-24T20:22:57;7.40;;;6.68;;
22983;SDS011;11658;48.908;9.140;2022-07-24T20:25:23;6.80;;;6.20;;
22983;SDS011;11658;48.908;9.140;2022-07-24T20:27:48;6.65;;;6.05;;
22983;SDS011;11658;48.908;9.140;2022-07-24T20:30:14;6.55;;;5.95;;
22983;SDS011;11658;48.908;9.140;2022-07-24T20:32:40;7.65;;;6.38;;
22983;SDS011;11658;48.908;9.140;2022-07-24T20:35:06;6.80;;;6.10;;
22983;SDS011;11658;48.908;9.140;2022-07-24T20:37:32;6.75;;;6.15;;
22983;SDS011;11658;48.908;9.140;2022-07-24T20:39:59;6.95;;;6.05;;
22983;SDS011;11658;48.908;9.140;2022-07-24T20:42:26;6.85;;;6.22;;
22983;SDS011;11658;48.908;9.140;2022-07-24T20:44:52;7.65;;;6.40;;
22983;SDS011;11658;48.908;9.140;2022-07-24T20:47:18;6.72;;;6.13;;
22983;SDS011;11658;48.908;9.140;2022-07-24T20:49:44;8.32;;;6.45;;
22983;SDS011;11658;48.908;9.140;2022-07-24T20:52:09;6.88;;;6.28;;
22983;SDS011;11658;48.908;9.140;2022-07-24T20:54:35;6.78;;;6.18;;
22983;SDS011;11658;48.908;9.140;2022-07-24T20:57:01;6.45;;;5.80;;
22983;SDS011;11658;48.908;9.140;2022-07-24T20:59:27;7.63;;;6.40;;
